sensor_id;sensor_type;location;lat;lon;timestamp;temperature;humidity
42965;DHT22;28604;51.204;22.552;2023-11-21T00:00:34;2.70;95.20
42965;DHT22;28604;51.204;22.552;2023-11-21T00:03:20;2.80;95.20
42965;DHT22;28604;51.204;22.552;2023-11-21T00:05:49;2.80;95.20
42965;DHT22;28604;51.204;22.552;2023-11-21T00:08:15;2.80;95.10
42965;DHT22;28604;51.204;22.552;2023-11-21T00:10:41;2.90;95.10
42965;DHT22;28604;51.204;22.552;2023-11-21T00:13:07;2.90;95.00
42965;DHT22;28604;51.204;22.552;2023-11-21T00:15:33;2.90;95.00
42965;DHT22;28604;51.204;22.552;2023-11-21T00:18:00;2.90;95.10
42965;DHT22;28604;51.204;22.552;2023-11-21T00:20:26;2.80;95.10
42965;DHT22;28604;51.204;22.552;2023-11-21T00:22:52;2.80;95.20
42965;DHT22;28604;51.204;22.552;2023-11-21T00:25:18;2.80;95.30
42965;DHT22;28604;51.204;22.552;2023-11-21T00:27:44;2.80;95.10
42965;DHT22;28604;51.204;22.552;2023-11-21T00:30:12;2.80;95.00
42965;DHT22;28604;51.204;22.552;2023-11-21T00:32:38;2.80;95.00
42965;DHT22;28604;51.204;22.552;2023-11-21T00:35:05;2.80;95.00
42965;DHT22;28604;51.204;22.552;2023-11-21T00:37:31;2.70;95.00
42965;DHT22;28604;51.204;22.552;2023-11-21T00:39:58;2.80;95.00
42965;DHT22;28604;51.204;22.552;2023-11-21T00:42:24;2.80;95.00
42965;DHT22;28604;51.204;22.552;2023-11-21T00:44:50;2.80;94.90
42965;DHT22;28604;51.204;22.552;2023-11-21T00:47:16;2.80;94.90
42965;DHT22;28604;51.204;22.552;2023-11-21T00:49:42;2.80;94.90
42965;DHT22;28604;51.204;22.552;2023-11-21T00:52:09;2.80;94.90
42965;DHT22;28604;51.204;22.552;2023-11-21T00:54:35;2.70;94.90
42965;DHT22;28604;51.204;22.552;2023-11-21T00:57:01;2.70;94.80
42965;DHT22;28604;51.204;22.552;2023-11-21T00:59:27;2.70;94.90
42965;DHT22;28604;51.204;22.552;2023-11-21T01:01:53;2.70;94.90
42965;DHT22;28604;51.204;22.552;2023-11-21T01:04:20;2.70;94.90
42965;DHT22;28604;51.204;22.552;2023-11-21T01:06:46;2.60;94.90
42965;DHT22;28604;51.204;22.552;2023-11-21T01:09:12;2.60;95.20
42965;DHT22;28604;51.204;22.552;2023-11-21T01:11:38;2.60;95.00
42965;DHT22;28604;51.204;22.552;2023-11-21T01:14:05;2.60;94.90
42965;DHT22;28604;51.204;22.552;2023-11-21T01:16:31;2.60;95.00
42965;DHT22;28604;51.204;22.552;2023-11-21T01:19:00;2.60;95.00
42965;DHT22;28604;51.204;22.552;2023-11-21T01:21:29;2.60;95.20
42965;DHT22;28604;51.204;22.552;2023-11-21T01:23:55;2.40;95.00
42965;DHT22;28604;51.204;22.552;2023-11-21T01:26:21;2.30;95.20
42965;DHT22;28604;51.204;22.552;2023-11-21T01:28:47;2.30;95.20
42965;DHT22;28604;51.204;22.552;2023-11-21T01:31:17;2.30;95.30
42965;DHT22;28604;51.204;22.552;2023-11-21T01:33:44;2.40;95.30
42965;DHT22;28604;51.204;22.552;2023-11-21T01:36:10;2.40;95.20
42965;DHT22;28604;51.204;22.552;2023-11-21T01:38:36;2.40;95.30
42965;DHT22;28604;51.204;22.552;2023-11-21T01:41:02;2.40;95.20
42965;DHT22;28604;51.204;22.552;2023-11-21T01:43:30;2.40;95.20
42965;DHT22;28604;51.204;22.552;2023-11-21T01:45:57;2.50;95.10
42965;DHT22;28604;51.204;22.552;2023-11-21T01:48:25;2.50;95.10
42965;DHT22;28604;51.204;22.552;2023-11-21T01:50:51;2.50;95.10
42965;DHT22;28604;51.204;22.552;2023-11-21T01:53:17;2.40;95.10
42965;DHT22;28604;51.204;22.552;2023-11-21T01:55:45;2.40;95.00
42965;DHT22;28604;51.204;22.552;2023-11-21T01:58:12;2.40;95.10
42965;DHT22;28604;51.204;22.552;2023-11-21T02:00:38;2.40;95.10
42965;DHT22;28604;51.204;22.552;2023-11-21T02:03:04;2.40;95.10
42965;DHT22;28604;51.204;22.552;2023-11-21T02:05:32;2.40;95.10
42965;DHT22;28604;51.204;22.552;2023-11-21T02:07:59;2.40;95.10
42965;DHT22;28604;51.204;22.552;2023-11-21T02:10:26;2.40;95.10
42965;DHT22;28604;51.204;22.552;2023-11-21T02:12:52;2.40;95.10
42965;DHT22;28604;51.204;22.552;2023-11-21T02:15:19;2.40;95.10
42965;DHT22;28604;51.204;22.552;2023-11-21T02:17:50;2.40;95.10
42965;DHT22;28604;51.204;22.552;2023-11-21T02:20:17;2.40;95.30
42965;DHT22;28604;51.204;22.552;2023-11-21T02:22:54;2.40;95.00
42965;DHT22;28604;51.204;22.552;2023-11-21T02:25:31;2.40;95.00
42965;DHT22;28604;51.204;22.552;2023-11-21T02:28:00;2.40;95.00
42965;DHT22;28604;51.204;22.552;2023-11-21T02:30:27;2.50;95.00
42965;DHT22;28604;51.204;22.552;2023-11-21T02:32:57;2.50;95.00
42965;DHT22;28604;51.204;22.552;2023-11-21T02:35:25;2.40;95.00
42965;DHT22;28604;51.204;22.552;2023-11-21T02:37:58;2.40;95.00
42965;DHT22;28604;51.204;22.552;2023-11-21T02:40:24;2.50;95.00
42965;DHT22;28604;51.204;22.552;2023-11-21T02:42:52;2.50;94.90
42965;DHT22;28604;51.204;22.552;2023-11-21T02:45:22;2.50;95.00
42965;DHT22;28604;51.204;22.552;2023-11-21T02:47:48;2.50;94.90
42965;DHT22;28604;51.204;22.552;2023-11-21T02:50:15;2.50;94.90
42965;DHT22;28604;51.204;22.552;2023-11-21T02:52:41;2.50;94.90
42965;DHT22;28604;51.204;22.552;2023-11-21T02:55:07;2.40;94.90
42965;DHT22;28604;51.204;22.552;2023-11-21T02:57:33;2.50;94.90
42965;DHT22;28604;51.204;22.552;2023-11-21T03:00:00;2.50;95.00
42965;DHT22;28604;51.204;22.552;2023-11-21T03:02:26;2.40;94.90
42965;DHT22;28604;51.204;22.552;2023-11-21T03:04:52;2.40;94.80
42965;DHT22;28604;51.204;22.552;2023-11-21T03:07:19;2.40;94.90
42965;DHT22;28604;51.204;22.552;2023-11-21T03:09:45;2.40;95.00
42965;DHT22;28604;51.204;22.552;2023-11-21T03:12:11;2.40;95.00
42965;DHT22;28604;51.204;22.552;2023-11-21T03:14:41;2.30;95.00
42965;DHT22;28604;51.204;22.552;2023-11-21T03:17:07;2.30;94.90
42965;DHT22;28604;51.204;22.552;2023-11-21T03:19:33;2.30;95.00
42965;DHT22;28604;51.204;22.552;2023-11-21T03:21:59;2.30;95.00
42965;DHT22;28604;51.204;22.552;2023-11-21T03:24:25;2.30;95.00
42965;DHT22;28604;51.204;22.552;2023-11-21T03:26:52;2.20;95.10
42965;DHT22;28604;51.204;22.552;2023-11-21T03:29:18;2.20;95.10
42965;DHT22;28604;51.204;22.552;2023-11-21T03:31:44;2.20;95.10
42965;DHT22;28604;51.204;22.552;2023-11-21T03:34:16;2.20;95.10
42965;DHT22;28604;51.204;22.552;2023-11-21T03:36:43;2.20;95.10
42965;DHT22;28604;51.204;22.552;2023-11-21T03:39:08;2.20;95.10
42965;DHT22;28604;51.204;22.552;2023-11-21T03:41:35;2.20;95.10
42965;DHT22;28604;51.204;22.552;2023-11-21T03:44:01;2.20;95.10
42965;DHT22;28604;51.204;22.552;2023-11-21T03:46:27;2.20;95.00
42965;DHT22;28604;51.204;22.552;2023-11-21T03:48:53;2.20;95.00
42965;DHT22;28604;51.204;22.552;2023-11-21T03:51:20;2.10;95.00
42965;DHT22;28604;51.204;22.552;2023-11-21T03:53:46;2.20;95.00
42965;DHT22;28604;51.204;22.552;2023-11-21T03:56:14;2.10;95.00
42965;DHT22;28604;51.204;22.552;2023-11-21T03:58:40;2.10;95.10
42965;DHT22;28604;51.204;22.552;2023-11-21T04:01:06;2.10;95.00
42965;DHT22;28604;51.204;22.552;2023-11-21T04:03:32;2.10;95.20
42965;DHT22;28604;51.204;22.552;2023-11-21T04:05:58;2.10;95.00
42965;DHT22;28604;51.204;22.552;2023-11-21T04:08:24;2.00;95.00
42965;DHT22;28604;51.204;22.552;2023-11-21T04:10:51;2.00;95.10
42965;DHT22;28604;51.204;22.552;2023-11-21T04:13:19;2.00;95.10
42965;DHT22;28604;51.204;22.552;2023-11-21T04:15:45;2.00;95.10
42965;DHT22;28604;51.204;22.552;2023-11-21T04:18:11;2.00;95.10
42965;DHT22;28604;51.204;22.552;2023-11-21T04:20:37;2.00;95.10
42965;DHT22;28604;51.204;22.552;2023-11-21T04:23:03;2.00;95.00
42965;DHT22;28604;51.204;22.552;2023-11-21T04:25:29;1.90;95.00
42965;DHT22;28604;51.204;22.552;2023-11-21T04:27:55;1.90;95.00
42965;DHT22;28604;51.204;22.552;2023-11-21T04:30:21;1.90;95.10
42965;DHT22;28604;51.204;22.552;2023-11-21T04:32:47;2.00;95.20
42965;DHT22;28604;51.204;22.552;2023-11-21T04:35:13;1.90;95.10
42965;DHT22;28604;51.204;22.552;2023-11-21T04:37:39;1.90;95.10
42965;DHT22;28604;51.204;22.552;2023-11-21T04:40:06;1.90;95.10
42965;DHT22;28604;51.204;22.552;2023-11-21T04:42:34;1.90;95.10
42965;DHT22;28604;51.204;22.552;2023-11-21T04:45:01;1.80;95.10
42965;DHT22;28604;51.204;22.552;2023-11-21T04:47:27;1.80;95.10
42965;DHT22;28604;51.204;22.552;2023-11-21T04:49:53;1.80;95.00
42965;DHT22;28604;51.204;22.552;2023-11-21T04:52:19;1.80;95.10
42965;DHT22;28604;51.204;22.552;2023-11-21T04:54:46;1.90;95.20
42965;DHT22;28604;51.204;22.552;2023-11-21T04:57:11;1.80;95.10
42965;DHT22;28604;51.204;22.552;2023-11-21T04:59:38;1.80;95.10
42965;DHT22;28604;51.204;22.552;2023-11-21T05:02:04;1.80;95.10
42965;DHT22;28604;51.204;22.552;2023-11-21T05:04:31;1.80;95.10
42965;DHT22;28604;51.204;22.552;2023-11-21T05:06:57;1.90;95.40
42965;DHT22;28604;51.204;22.552;2023-11-21T05:09:23;1.90;95.10
42965;DHT22;28604;51.204;22.552;2023-11-21T05:11:49;1.80;95.10
42965;DHT22;28604;51.204;22.552;2023-11-21T05:14:15;1.80;95.10
42965;DHT22;28604;51.204;22.552;2023-11-21T05:16:41;1.80;95.20
42965;DHT22;28604;51.204;22.552;2023-11-21T05:19:08;1.80;95.10
42965;DHT22;28604;51.204;22.552;2023-11-21T05:21:34;1.80;95.10
42965;DHT22;28604;51.204;22.552;2023-11-21T05:24:01;1.70;95.20
42965;DHT22;28604;51.204;22.552;2023-11-21T05:26:27;1.70;95.20
42965;DHT22;28604;51.204;22.552;2023-11-21T05:28:53;1.70;95.10
42965;DHT22;28604;51.204;22.552;2023-11-21T05:31:19;1.60;95.30
42965;DHT22;28604;51.204;22.552;2023-11-21T05:33:45;1.70;95.30
42965;DHT22;28604;51.204;22.552;2023-11-21T05:36:11;1.70;95.30
42965;DHT22;28604;51.204;22.552;2023-11-21T05:38:37;1.70;95.20
42965;DHT22;28604;51.204;22.552;2023-11-21T05:41:03;1.70;95.20
42965;DHT22;28604;51.204;22.552;2023-11-21T05:43:30;1.70;95.30
42965;DHT22;28604;51.204;22.552;2023-11-21T05:45:58;1.70;95.30
42965;DHT22;28604;51.204;22.552;2023-11-21T05:48:24;1.70;95.20
42965;DHT22;28604;51.204;22.552;2023-11-21T05:50:51;1.60;95.20
42965;DHT22;28604;51.204;22.552;2023-11-21T05:53:17;1.60;95.20
42965;DHT22;28604;51.204;22.552;2023-11-21T05:55:43;1.60;95.30
42965;DHT22;28604;51.204;22.552;2023-11-21T05:58:09;1.60;95.30
42965;DHT22;28604;51.204;22.552;2023-11-21T06:00:36;1.70;95.30
42965;DHT22;28604;51.204;22.552;2023-11-21T06:03:02;1.70;95.30
42965;DHT22;28604;51.204;22.552;2023-11-21T06:05:29;1.70;95.40
42965;DHT22;28604;51.204;22.552;2023-11-21T06:07:58;1.70;95.50
42965;DHT22;28604;51.204;22.552;2023-11-21T06:10:27;1.70;95.30
42965;DHT22;28604;51.204;22.552;2023-11-21T06:12:54;1.80;95.20
42965;DHT22;28604;51.204;22.552;2023-11-21T06:15:20;1.80;95.10
42965;DHT22;28604;51.204;22.552;2023-11-21T06:17:46;1.80;95.10
42965;DHT22;28604;51.204;22.552;2023-11-21T06:20:15;1.80;95.10
42965;DHT22;28604;51.204;22.552;2023-11-21T06:22:46;1.80;95.10
42965;DHT22;28604;51.204;22.552;2023-11-21T06:25:13;1.80;95.10
42965;DHT22;28604;51.204;22.552;2023-11-21T06:27:44;1.80;95.20
42965;DHT22;28604;51.204;22.552;2023-11-21T06:30:13;1.80;95.20
42965;DHT22;28604;51.204;22.552;2023-11-21T06:32:42;1.80;95.20
42965;DHT22;28604;51.204;22.552;2023-11-21T06:35:11;1.80;95.10
42965;DHT22;28604;51.204;22.552;2023-11-21T06:37:38;1.80;95.10
42965;DHT22;28604;51.204;22.552;2023-11-21T06:40:04;1.80;95.10
42965;DHT22;28604;51.204;22.552;2023-11-21T06:42:31;1.80;95.10
42965;DHT22;28604;51.204;22.552;2023-11-21T06:44:57;1.80;95.10
42965;DHT22;28604;51.204;22.552;2023-11-21T06:47:24;1.80;95.20
42965;DHT22;28604;51.204;22.552;2023-11-21T06:49:55;1.80;95.00
42965;DHT22;28604;51.204;22.552;2023-11-21T06:52:21;1.80;95.10
42965;DHT22;28604;51.204;22.552;2023-11-21T06:54:47;1.80;95.10
42965;DHT22;28604;51.204;22.552;2023-11-21T06:57:15;1.90;95.00
42965;DHT22;28604;51.204;22.552;2023-11-21T06:59:41;1.80;95.00
42965;DHT22;28604;51.204;22.552;2023-11-21T07:02:07;1.80;95.10
42965;DHT22;28604;51.204;22.552;2023-11-21T07:04:33;1.80;95.10
42965;DHT22;28604;51.204;22.552;2023-11-21T07:07:00;1.90;95.10
42965;DHT22;28604;51.204;22.552;2023-11-21T07:14:57;1.90;95.10
42965;DHT22;28604;51.204;22.552;2023-11-21T07:17:23;1.90;95.20
42965;DHT22;28604;51.204;22.552;2023-11-21T07:19:49;1.90;95.10
42965;DHT22;28604;51.204;22.552;2023-11-21T07:22:16;1.90;95.00
42965;DHT22;28604;51.204;22.552;2023-11-21T07:24:50;1.80;95.10
42965;DHT22;28604;51.204;22.552;2023-11-21T07:27:19;1.80;95.10
42965;DHT22;28604;51.204;22.552;2023-11-21T07:29:45;1.80;95.10
42965;DHT22;28604;51.204;22.552;2023-11-21T07:32:11;1.80;95.10
42965;DHT22;28604;51.204;22.552;2023-11-21T07:34:38;1.80;95.20
42965;DHT22;28604;51.204;22.552;2023-11-21T07:37:04;1.80;95.10
42965;DHT22;28604;51.204;22.552;2023-11-21T07:39:30;1.80;95.10
42965;DHT22;28604;51.204;22.552;2023-11-21T07:41:56;1.90;95.20
42965;DHT22;28604;51.204;22.552;2023-11-21T07:44:23;1.90;95.20
42965;DHT22;28604;51.204;22.552;2023-11-21T07:46:49;1.80;95.00
42965;DHT22;28604;51.204;22.552;2023-11-21T07:49:15;1.90;95.20
42965;DHT22;28604;51.204;22.552;2023-11-21T07:51:43;1.90;95.10
42965;DHT22;28604;51.204;22.552;2023-11-21T07:54:09;1.90;95.00
42965;DHT22;28604;51.204;22.552;2023-11-21T07:56:36;1.90;95.10
42965;DHT22;28604;51.204;22.552;2023-11-21T07:59:04;1.90;95.00
42965;DHT22;28604;51.204;22.552;2023-11-21T08:01:36;1.80;95.00
42965;DHT22;28604;51.204;22.552;2023-11-21T08:04:02;1.90;95.10
42965;DHT22;28604;51.204;22.552;2023-11-21T08:06:30;1.80;94.90
42965;DHT22;28604;51.204;22.552;2023-11-21T08:08:57;1.80;95.20
42965;DHT22;28604;51.204;22.552;2023-11-21T08:11:23;1.80;95.20
42965;DHT22;28604;51.204;22.552;2023-11-21T08:13:48;1.80;95.20
42965;DHT22;28604;51.204;22.552;2023-11-21T08:16:15;1.80;95.20
42965;DHT22;28604;51.204;22.552;2023-11-21T08:18:42;1.90;95.10
42965;DHT22;28604;51.204;22.552;2023-11-21T08:21:08;1.90;95.10
42965;DHT22;28604;51.204;22.552;2023-11-21T08:23:34;2.00;95.00
42965;DHT22;28604;51.204;22.552;2023-11-21T08:26:01;1.90;95.10
42965;DHT22;28604;51.204;22.552;2023-11-21T08:28:28;1.90;95.00
42965;DHT22;28604;51.204;22.552;2023-11-21T08:30:55;2.00;95.00
42965;DHT22;28604;51.204;22.552;2023-11-21T08:33:20;2.00;95.00
42965;DHT22;28604;51.204;22.552;2023-11-21T08:35:47;2.00;94.90
42965;DHT22;28604;51.204;22.552;2023-11-21T08:38:13;2.00;94.90
42965;DHT22;28604;51.204;22.552;2023-11-21T08:40:39;2.00;94.80
42965;DHT22;28604;51.204;22.552;2023-11-21T08:43:05;2.00;94.80
42965;DHT22;28604;51.204;22.552;2023-11-21T08:45:31;2.00;94.90
42965;DHT22;28604;51.204;22.552;2023-11-21T08:48:00;2.00;94.90
42965;DHT22;28604;51.204;22.552;2023-11-21T08:50:26;2.00;94.90
42965;DHT22;28604;51.204;22.552;2023-11-21T08:52:52;2.10;94.90
42965;DHT22;28604;51.204;22.552;2023-11-21T08:55:18;2.10;94.90
42965;DHT22;28604;51.204;22.552;2023-11-21T08:57:45;2.10;94.90
42965;DHT22;28604;51.204;22.552;2023-11-21T09:00:15;2.10;94.90
42965;DHT22;28604;51.204;22.552;2023-11-21T09:02:43;2.10;94.80
42965;DHT22;28604;51.204;22.552;2023-11-21T09:05:11;2.10;94.90
42965;DHT22;28604;51.204;22.552;2023-11-21T09:07:39;2.20;94.80
42965;DHT22;28604;51.204;22.552;2023-11-21T09:10:05;2.10;94.80
42965;DHT22;28604;51.204;22.552;2023-11-21T09:12:34;2.10;94.80
42965;DHT22;28604;51.204;22.552;2023-11-21T09:15:05;2.20;94.80
42965;DHT22;28604;51.204;22.552;2023-11-21T09:17:32;2.20;94.70
42965;DHT22;28604;51.204;22.552;2023-11-21T09:20:00;2.20;94.70
42965;DHT22;28604;51.204;22.552;2023-11-21T09:22:26;2.20;94.70
42965;DHT22;28604;51.204;22.552;2023-11-21T09:24:53;2.20;94.80
42965;DHT22;28604;51.204;22.552;2023-11-21T09:27:19;2.20;94.70
42965;DHT22;28604;51.204;22.552;2023-11-21T09:29:47;2.20;94.70
42965;DHT22;28604;51.204;22.552;2023-11-21T09:32:15;2.20;94.70
42965;DHT22;28604;51.204;22.552;2023-11-21T09:34:42;2.30;94.70
42965;DHT22;28604;51.204;22.552;2023-11-21T09:37:11;2.30;94.70
42965;DHT22;28604;51.204;22.552;2023-11-21T09:39:37;2.40;94.70
42965;DHT22;28604;51.204;22.552;2023-11-21T09:42:13;2.40;94.70
42965;DHT22;28604;51.204;22.552;2023-11-21T09:44:51;2.40;94.70
42965;DHT22;28604;51.204;22.552;2023-11-21T09:47:21;2.40;94.60
42965;DHT22;28604;51.204;22.552;2023-11-21T09:49:49;2.40;94.60
42965;DHT22;28604;51.204;22.552;2023-11-21T09:52:23;2.40;94.60
42965;DHT22;28604;51.204;22.552;2023-11-21T09:54:52;2.50;94.90
42965;DHT22;28604;51.204;22.552;2023-11-21T09:57:23;2.50;94.60
42965;DHT22;28604;51.204;22.552;2023-11-21T09:59:54;2.50;94.60
42965;DHT22;28604;51.204;22.552;2023-11-21T10:02:26;2.50;94.50
42965;DHT22;28604;51.204;22.552;2023-11-21T10:04:54;2.50;94.60
42965;DHT22;28604;51.204;22.552;2023-11-21T10:07:21;2.50;94.60
42965;DHT22;28604;51.204;22.552;2023-11-21T10:09:47;2.40;94.50
42965;DHT22;28604;51.204;22.552;2023-11-21T10:12:16;2.50;94.50
42965;DHT22;28604;51.204;22.552;2023-11-21T10:14:42;2.50;94.60
42965;DHT22;28604;51.204;22.552;2023-11-21T10:17:14;2.50;94.50
42965;DHT22;28604;51.204;22.552;2023-11-21T10:19:47;2.50;94.60
42965;DHT22;28604;51.204;22.552;2023-11-21T10:22:17;2.50;94.50
42965;DHT22;28604;51.204;22.552;2023-11-21T10:24:43;2.50;94.60
42965;DHT22;28604;51.204;22.552;2023-11-21T10:27:09;2.40;94.70
42965;DHT22;28604;51.204;22.552;2023-11-21T10:29:35;2.50;94.60
42965;DHT22;28604;51.204;22.552;2023-11-21T10:32:05;2.50;94.70
42965;DHT22;28604;51.204;22.552;2023-11-21T10:34:31;2.50;94.70
42965;DHT22;28604;51.204;22.552;2023-11-21T10:36:58;2.50;94.60
42965;DHT22;28604;51.204;22.552;2023-11-21T10:39:24;2.50;94.50
42965;DHT22;28604;51.204;22.552;2023-11-21T10:41:56;2.50;94.60
42965;DHT22;28604;51.204;22.552;2023-11-21T10:44:22;2.50;94.50
42965;DHT22;28604;51.204;22.552;2023-11-21T10:46:54;2.50;94.50
42965;DHT22;28604;51.204;22.552;2023-11-21T10:49:25;2.50;94.50
42965;DHT22;28604;51.204;22.552;2023-11-21T10:51:52;2.50;94.50
42965;DHT22;28604;51.204;22.552;2023-11-21T10:54:20;2.50;94.50
42965;DHT22;28604;51.204;22.552;2023-11-21T10:56:49;2.50;94.40
42965;DHT22;28604;51.204;22.552;2023-11-21T10:59:17;2.50;94.50
42965;DHT22;28604;51.204;22.552;2023-11-21T11:01:47;2.60;94.40
42965;DHT22;28604;51.204;22.552;2023-11-21T11:04:18;2.50;94.60
42965;DHT22;28604;51.204;22.552;2023-11-21T11:06:54;2.50;94.40
42965;DHT22;28604;51.204;22.552;2023-11-21T11:09:20;2.50;94.50
42965;DHT22;28604;51.204;22.552;2023-11-21T11:11:46;2.50;94.40
42965;DHT22;28604;51.204;22.552;2023-11-21T11:14:13;2.50;94.40
42965;DHT22;28604;51.204;22.552;2023-11-21T11:16:40;2.50;94.40
42965;DHT22;28604;51.204;22.552;2023-11-21T11:19:07;2.50;94.30
42965;DHT22;28604;51.204;22.552;2023-11-21T11:21:53;2.60;94.40
42965;DHT22;28604;51.204;22.552;2023-11-21T11:33:02;2.60;94.60
42965;DHT22;28604;51.204;22.552;2023-11-21T11:38:22;2.60;94.10
42965;DHT22;28604;51.204;22.552;2023-11-21T11:40:55;2.50;94.20
42965;DHT22;28604;51.204;22.552;2023-11-21T11:43:27;2.50;94.20
42965;DHT22;28604;51.204;22.552;2023-11-21T11:45:57;2.50;94.10
42965;DHT22;28604;51.204;22.552;2023-11-21T11:48:25;2.50;94.20
42965;DHT22;28604;51.204;22.552;2023-11-21T11:51:11;2.50;94.20
42965;DHT22;28604;51.204;22.552;2023-11-21T11:53:44;2.50;94.20
42965;DHT22;28604;51.204;22.552;2023-11-21T11:56:31;2.40;94.00
42965;DHT22;28604;51.204;22.552;2023-11-21T11:59:02;2.40;94.10
42965;DHT22;28604;51.204;22.552;2023-11-21T12:01:31;2.40;94.30
42965;DHT22;28604;51.204;22.552;2023-11-21T12:07:02;2.40;94.30
42965;DHT22;28604;51.204;22.552;2023-11-21T12:09:30;2.40;94.30
42965;DHT22;28604;51.204;22.552;2023-11-21T12:11:57;2.40;94.30
42965;DHT22;28604;51.204;22.552;2023-11-21T12:14:23;2.40;94.20
42965;DHT22;28604;51.204;22.552;2023-11-21T12:16:50;2.40;94.30
42965;DHT22;28604;51.204;22.552;2023-11-21T12:19:17;2.40;94.20
42965;DHT22;28604;51.204;22.552;2023-11-21T12:21:43;2.40;94.20
42965;DHT22;28604;51.204;22.552;2023-11-21T12:24:10;2.40;94.20
42965;DHT22;28604;51.204;22.552;2023-11-21T12:26:40;2.40;94.20
42965;DHT22;28604;51.204;22.552;2023-11-21T12:29:06;2.40;94.20
42965;DHT22;28604;51.204;22.552;2023-11-21T12:31:34;2.40;94.20
42965;DHT22;28604;51.204;22.552;2023-11-21T12:34:00;2.50;94.20
42965;DHT22;28604;51.204;22.552;2023-11-21T12:36:27;2.50;94.00
42965;DHT22;28604;51.204;22.552;2023-11-21T12:38:55;2.50;94.10
42965;DHT22;28604;51.204;22.552;2023-11-21T12:41:22;2.50;94.10
42965;DHT22;28604;51.204;22.552;2023-11-21T12:43:48;2.40;94.20
42965;DHT22;28604;51.204;22.552;2023-11-21T12:46:15;2.40;94.20
42965;DHT22;28604;51.204;22.552;2023-11-21T12:48:41;2.40;94.20
42965;DHT22;28604;51.204;22.552;2023-11-21T12:51:10;2.40;94.20
42965;DHT22;28604;51.204;22.552;2023-11-21T12:53:44;2.40;94.20
42965;DHT22;28604;51.204;22.552;2023-11-21T12:56:11;2.40;94.30
42965;DHT22;28604;51.204;22.552;2023-11-21T12:58:38;2.40;94.30
42965;DHT22;28604;51.204;22.552;2023-11-21T13:01:14;2.40;94.30
42965;DHT22;28604;51.204;22.552;2023-11-21T13:03:50;2.30;94.20
42965;DHT22;28604;51.204;22.552;2023-11-21T13:06:17;2.40;94.30
42965;DHT22;28604;51.204;22.552;2023-11-21T13:08:44;2.40;94.30
42965;DHT22;28604;51.204;22.552;2023-11-21T13:11:11;2.40;94.30
42965;DHT22;28604;51.204;22.552;2023-11-21T13:13:40;2.40;94.30
42965;DHT22;28604;51.204;22.552;2023-11-21T13:16:07;2.30;94.60
42965;DHT22;28604;51.204;22.552;2023-11-21T13:18:34;2.30;94.30
42965;DHT22;28604;51.204;22.552;2023-11-21T13:21:05;2.30;94.30
42965;DHT22;28604;51.204;22.552;2023-11-21T13:23:42;2.30;94.30
42965;DHT22;28604;51.204;22.552;2023-11-21T13:26:09;2.30;94.40
42965;DHT22;28604;51.204;22.552;2023-11-21T13:28:35;2.30;94.30
42965;DHT22;28604;51.204;22.552;2023-11-21T13:31:04;2.30;94.30
42965;DHT22;28604;51.204;22.552;2023-11-21T13:33:41;2.30;94.20
42965;DHT22;28604;51.204;22.552;2023-11-21T13:36:08;2.30;94.30
42965;DHT22;28604;51.204;22.552;2023-11-21T13:38:35;2.40;94.30
42965;DHT22;28604;51.204;22.552;2023-11-21T13:41:03;2.30;94.30
42965;DHT22;28604;51.204;22.552;2023-11-21T13:43:34;2.30;94.30
42965;DHT22;28604;51.204;22.552;2023-11-21T13:46:00;2.30;94.30
42965;DHT22;28604;51.204;22.552;2023-11-21T13:48:29;2.20;94.30
42965;DHT22;28604;51.204;22.552;2023-11-21T13:51:07;2.20;94.30
42965;DHT22;28604;51.204;22.552;2023-11-21T13:53:47;2.20;94.20
42965;DHT22;28604;51.204;22.552;2023-11-21T13:56:14;2.20;94.30
42965;DHT22;28604;51.204;22.552;2023-11-21T13:58:45;2.20;94.30
42965;DHT22;28604;51.204;22.552;2023-11-21T14:01:17;2.10;94.50
42965;DHT22;28604;51.204;22.552;2023-11-21T14:04:04;2.10;94.20
42965;DHT22;28604;51.204;22.552;2023-11-21T14:06:47;2.10;94.30
42965;DHT22;28604;51.204;22.552;2023-11-21T14:09:15;2.00;94.30
42965;DHT22;28604;51.204;22.552;2023-11-21T14:11:51;2.10;94.30
42965;DHT22;28604;51.204;22.552;2023-11-21T14:14:19;2.10;94.40
42965;DHT22;28604;51.204;22.552;2023-11-21T14:16:46;2.10;94.60
42965;DHT22;28604;51.204;22.552;2023-11-21T14:19:15;2.00;94.20
42965;DHT22;28604;51.204;22.552;2023-11-21T14:21:47;2.10;94.30
42965;DHT22;28604;51.204;22.552;2023-11-21T14:24:16;2.00;94.30
42965;DHT22;28604;51.204;22.552;2023-11-21T14:26:46;2.10;94.30
42965;DHT22;28604;51.204;22.552;2023-11-21T14:29:13;2.00;94.30
42965;DHT22;28604;51.204;22.552;2023-11-21T14:31:42;2.00;94.30
42965;DHT22;28604;51.204;22.552;2023-11-21T14:34:08;2.00;94.50
42965;DHT22;28604;51.204;22.552;2023-11-21T14:36:35;2.00;94.30
42965;DHT22;28604;51.204;22.552;2023-11-21T14:39:03;1.90;94.40
42965;DHT22;28604;51.204;22.552;2023-11-21T14:41:33;2.00;94.40
42965;DHT22;28604;51.204;22.552;2023-11-21T14:44:01;1.90;94.40
42965;DHT22;28604;51.204;22.552;2023-11-21T14:46:30;1.90;94.40
42965;DHT22;28604;51.204;22.552;2023-11-21T14:48:56;1.90;94.40
42965;DHT22;28604;51.204;22.552;2023-11-21T14:51:35;1.90;94.30
42965;DHT22;28604;51.204;22.552;2023-11-21T14:54:21;1.90;94.40
42965;DHT22;28604;51.204;22.552;2023-11-21T14:57:04;1.80;94.40
42965;DHT22;28604;51.204;22.552;2023-11-21T14:59:35;1.80;94.30
42965;DHT22;28604;51.204;22.552;2023-11-21T15:02:01;1.80;94.30
42965;DHT22;28604;51.204;22.552;2023-11-21T15:04:41;1.80;94.30
42965;DHT22;28604;51.204;22.552;2023-11-21T15:07:08;1.80;94.30
42965;DHT22;28604;51.204;22.552;2023-11-21T15:09:34;1.70;94.30
42965;DHT22;28604;51.204;22.552;2023-11-21T15:12:06;1.80;94.30
42965;DHT22;28604;51.204;22.552;2023-11-21T15:14:46;1.80;94.30
42965;DHT22;28604;51.204;22.552;2023-11-21T15:17:15;1.80;94.30
42965;DHT22;28604;51.204;22.552;2023-11-21T15:19:48;1.80;94.20
42965;DHT22;28604;51.204;22.552;2023-11-21T15:22:15;1.70;94.30
42965;DHT22;28604;51.204;22.552;2023-11-21T15:24:44;1.70;94.30
42965;DHT22;28604;51.204;22.552;2023-11-21T15:27:13;1.70;94.30
42965;DHT22;28604;51.204;22.552;2023-11-21T15:29:39;1.70;94.30
42965;DHT22;28604;51.204;22.552;2023-11-21T15:32:06;1.70;94.20
42965;DHT22;28604;51.204;22.552;2023-11-21T15:34:33;1.70;94.30
42965;DHT22;28604;51.204;22.552;2023-11-21T15:37:00;1.70;94.30
42965;DHT22;28604;51.204;22.552;2023-11-21T15:39:25;1.70;94.30
42965;DHT22;28604;51.204;22.552;2023-11-21T15:41:57;1.70;94.30
42965;DHT22;28604;51.204;22.552;2023-11-21T15:44:24;1.60;94.20
42965;DHT22;28604;51.204;22.552;2023-11-21T15:46:52;1.60;94.30
42965;DHT22;28604;51.204;22.552;2023-11-21T15:49:18;1.60;94.30
42965;DHT22;28604;51.204;22.552;2023-11-21T15:51:48;1.60;94.40
42965;DHT22;28604;51.204;22.552;2023-11-21T15:54:23;1.60;94.30